sensor_id;sensor_type;location;lat;lon;timestamp;pressure;altitude;pressure_sealevel;temperature;humidity
9091;BME280;4581;42.416;25.598;2023-07-31T00:01:34;97805.13;;;24.47;nan
9091;BME280;4581;42.416;25.598;2023-07-31T00:04:00;97799.06;;;24.45;nan
9091;BME280;4581;42.416;25.598;2023-07-31T00:06:27;97782.53;;;24.40;nan
9091;BME280;4581;42.416;25.598;2023-07-31T00:08:54;97787.50;;;24.43;nan
9091;BME280;4581;42.416;25.598;2023-07-31T00:11:21;97788.34;;;24.43;nan
9091;BME280;4581;42.416;25.598;2023-07-31T00:13:47;97789.16;;;24.44;nan
9091;BME280;4581;42.416;25.598;2023-07-31T00:16:14;97783.03;;;24.52;nan
9091;BME280;4581;42.416;25.598;2023-07-31T00:18:41;97776.44;;;24.53;nan
9091;BME280;4581;42.416;25.598;2023-07-31T00:21:07;97776.09;;;24.59;nan
9091;BME280;4581;42.416;25.598;2023-07-31T00:23:34;97773.84;;;24.71;nan
9091;BME280;4581;42.416;25.598;2023-07-31T00:26:01;97766.28;;;24.92;nan
9091;BME280;4581;42.416;25.598;2023-07-31T00:28:28;97768.44;;;25.00;nan
9091;BME280;4581;42.416;25.598;2023-07-31T00:30:55;97761.91;;;24.91;nan
9091;BME280;4581;42.416;25.598;2023-07-31T00:33:22;97767.72;;;24.85;nan
9091;BME280;4581;42.416;25.598;2023-07-31T00:35:49;97764.97;;;24.80;nan
9091;BME280;4581;42.416;25.598;2023-07-31T00:38:15;97758.91;;;24.78;nan
9091;BME280;4581;42.416;25.598;2023-07-31T00:40:42;97757.56;;;24.75;nan
9091;BME280;4581;42.416;25.598;2023-07-31T00:43:09;97762.25;;;24.75;nan
9091;BME280;4581;42.416;25.598;2023-07-31T00:45:36;97760.31;;;24.75;nan
9091;BME280;4581;42.416;25.598;2023-07-31T00:48:03;97758.66;;;24.74;nan
9091;BME280;4581;42.416;25.598;2023-07-31T00:50:33;97760.34;;;24.70;nan
9091;BME280;4581;42.416;25.598;2023-07-31T00:52:59;97768.06;;;24.68;nan
9091;BME280;4581;42.416;25.598;2023-07-31T00:55:26;97758.47;;;24.60;nan
9091;BME280;4581;42.416;25.598;2023-07-31T00:57:54;97750.19;;;24.60;nan
9091;BME280;4581;42.416;25.598;2023-07-31T01:00:22;97745.59;;;24.51;nan
9091;BME280;4581;42.416;25.598;2023-07-31T01:02:50;97741.81;;;24.32;nan
9091;BME280;4581;42.416;25.598;2023-07-31T01:08:36;97750.16;;;24.06;nan
9091;BME280;4581;42.416;25.598;2023-07-31T01:11:27;97751.28;;;23.95;nan
9091;BME280;4581;42.416;25.598;2023-07-31T01:13:55;97747.47;;;23.86;nan
9091;BME280;4581;42.416;25.598;2023-07-31T01:16:22;97743.91;;;23.75;nan
9091;BME280;4581;42.416;25.598;2023-07-31T01:18:49;97739.53;;;23.69;nan
9091;BME280;4581;42.416;25.598;2023-07-31T01:23:51;97747.28;;;23.52;nan
9091;BME280;4581;42.416;25.598;2023-07-31T01:26:28;97741.50;;;23.54;nan
9091;BME280;4581;42.416;25.598;2023-07-31T01:29:09;97747.56;;;23.51;nan
9091;BME280;4581;42.416;25.598;2023-07-31T01:31:38;97742.84;;;23.41;nan
9091;BME280;4581;42.416;25.598;2023-07-31T01:34:06;97744.25;;;23.28;nan
9091;BME280;4581;42.416;25.598;2023-07-31T01:36:36;97745.06;;;23.24;nan
9091;BME280;4581;42.416;25.598;2023-07-31T01:39:03;97743.41;;;23.28;nan
9091;BME280;4581;42.416;25.598;2023-07-31T01:41:30;97740.94;;;23.21;nan
9091;BME280;4581;42.416;25.598;2023-07-31T01:43:57;97744.25;;;23.18;nan
9091;BME280;4581;42.416;25.598;2023-07-31T01:46:23;97738.19;;;23.11;nan
9091;BME280;4581;42.416;25.598;2023-07-31T01:48:50;97748.94;;;22.98;nan
9091;BME280;4581;42.416;25.598;2023-07-31T01:51:17;97757.44;;;23.01;nan
9091;BME280;4581;42.416;25.598;2023-07-31T01:53:44;97762.13;;;23.06;nan
9091;BME280;4581;42.416;25.598;2023-07-31T01:56:10;97769.00;;;23.08;nan
9091;BME280;4581;42.416;25.598;2023-07-31T01:58:37;97775.06;;;23.05;nan
9091;BME280;4581;42.416;25.598;2023-07-31T02:01:04;97773.09;;;22.96;nan
9091;BME280;4581;42.416;25.598;2023-07-31T02:03:31;97771.75;;;22.98;nan
9091;BME280;4581;42.416;25.598;2023-07-31T02:05:57;97775.59;;;22.97;nan
9091;BME280;4581;42.416;25.598;2023-07-31T02:08:24;97782.16;;;22.91;nan
9091;BME280;4581;42.416;25.598;2023-07-31T02:10:51;97779.41;;;22.91;nan
9091;BME280;4581;42.416;25.598;2023-07-31T02:13:18;97783.56;;;22.89;nan
9091;BME280;4581;42.416;25.598;2023-07-31T02:15:45;97783.81;;;22.82;nan
9091;BME280;4581;42.416;25.598;2023-07-31T02:18:12;97776.94;;;22.84;nan
9091;BME280;4581;42.416;25.598;2023-07-31T02:20:39;97785.22;;;22.90;nan
9091;BME280;4581;42.416;25.598;2023-07-31T02:23:05;97779.72;;;22.90;nan
9091;BME280;4581;42.416;25.598;2023-07-31T02:25:32;97775.84;;;22.85;nan
9091;BME280;4581;42.416;25.598;2023-07-31T02:27:59;97767.84;;;22.79;nan
9091;BME280;4581;42.416;25.598;2023-07-31T02:30:26;97775.84;;;22.80;nan
9091;BME280;4581;42.416;25.598;2023-07-31T02:32:52;97782.44;;;22.74;nan
9091;BME280;4581;42.416;25.598;2023-07-31T02:35:19;97782.66;;;22.68;nan
9091;BME280;4581;42.416;25.598;2023-07-31T02:37:46;97783.19;;;22.65;nan
9091;BME280;4581;42.416;25.598;2023-07-31T02:40:13;97787.03;;;22.59;nan
9091;BME280;4581;42.416;25.598;2023-07-31T02:42:39;97788.66;;;22.50;nan
9091;BME280;4581;42.416;25.598;2023-07-31T02:45:07;97776.78;;;22.34;nan
9091;BME280;4581;42.416;25.598;2023-07-31T02:47:34;97774.28;;;22.22;nan
9091;BME280;4581;42.416;25.598;2023-07-31T02:50:02;97778.13;;;22.21;nan
9091;BME280;4581;42.416;25.598;2023-07-31T02:52:29;97774.53;;;22.21;nan
9091;BME280;4581;42.416;25.598;2023-07-31T02:54:57;97775.09;;;22.23;nan
9091;BME280;4581;42.416;25.598;2023-07-31T02:57:24;97785.50;;;22.16;nan
9091;BME280;4581;42.416;25.598;2023-07-31T02:59:50;97788.56;;;22.24;nan
9091;BME280;4581;42.416;25.598;2023-07-31T03:02:17;97789.66;;;22.23;nan
9091;BME280;4581;42.416;25.598;2023-07-31T03:04:44;97795.69;;;22.20;nan
9091;BME280;4581;42.416;25.598;2023-07-31T03:07:11;97794.06;;;22.24;nan
9091;BME280;4581;42.416;25.598;2023-07-31T03:09:37;97788.31;;;22.26;nan
9091;BME280;4581;42.416;25.598;2023-07-31T03:12:04;97790.44;;;22.19;nan
9091;BME280;4581;42.416;25.598;2023-07-31T03:14:31;97789.63;;;22.13;nan
9091;BME280;4581;42.416;25.598;2023-07-31T03:16:59;97796.19;;;22.12;nan
9091;BME280;4581;42.416;25.598;2023-07-31T03:19:25;97797.78;;;22.03;nan
9091;BME280;4581;42.416;25.598;2023-07-31T03:21:52;97796.69;;;22.04;nan
9091;BME280;4581;42.416;25.598;2023-07-31T03:24:19;97790.63;;;21.97;nan
9091;BME280;4581;42.416;25.598;2023-07-31T03:26:45;97795.06;;;22.08;nan
9091;BME280;4581;42.416;25.598;2023-07-31T03:29:12;97790.66;;;22.07;nan
9091;BME280;4581;42.416;25.598;2023-07-31T03:31:39;97790.66;;;22.07;nan
9091;BME280;4581;42.416;25.598;2023-07-31T03:34:06;97792.28;;;22.03;nan
9091;BME280;4581;42.416;25.598;2023-07-31T03:36:32;97793.13;;;22.04;nan
9091;BME280;4581;42.416;25.598;2023-07-31T03:38:59;97786.81;;;22.03;nan
9091;BME280;4581;42.416;25.598;2023-07-31T03:41:26;97786.81;;;22.03;nan
9091;BME280;4581;42.416;25.598;2023-07-31T03:43:53;97784.06;;;21.98;nan
9091;BME280;4581;42.416;25.598;2023-07-31T03:46:19;97789.25;;;21.95;nan
9091;BME280;4581;42.416;25.598;2023-07-31T03:48:46;97787.34;;;22.00;nan
9091;BME280;4581;42.416;25.598;2023-07-31T03:51:13;97795.66;;;22.10;nan
9091;BME280;4581;42.416;25.598;2023-07-31T03:53:40;97789.03;;;22.11;nan
9091;BME280;4581;42.416;25.598;2023-07-31T03:56:06;97791.56;;;22.23;nan
9091;BME280;4581;42.416;25.598;2023-07-31T03:58:33;97787.50;;;22.30;nan
9091;BME280;4581;42.416;25.598;2023-07-31T04:01:01;97791.34;;;22.39;nan
9091;BME280;4581;42.416;25.598;2023-07-31T04:03:28;97792.47;;;22.44;nan
9091;BME280;4581;42.416;25.598;2023-07-31T04:05:55;97798.00;;;22.49;nan
9091;BME280;4581;42.416;25.598;2023-07-31T04:08:23;97802.41;;;22.60;nan
9091;BME280;4581;42.416;25.598;2023-07-31T04:10:50;97809.59;;;22.66;nan
9091;BME280;4581;42.416;25.598;2023-07-31T04:13:17;97811.28;;;22.72;nan
9091;BME280;4581;42.416;25.598;2023-07-31T04:15:48;97807.75;;;22.81;nan
9091;BME280;4581;42.416;25.598;2023-07-31T04:18:16;97810.50;;;22.81;nan
9091;BME280;4581;42.416;25.598;2023-07-31T04:20:43;97804.19;;;22.86;nan
9091;BME280;4581;42.416;25.598;2023-07-31T04:23:10;97806.38;;;22.94;nan
9091;BME280;4581;42.416;25.598;2023-07-31T04:25:36;97817.38;;;22.94;nan
9091;BME280;4581;42.416;25.598;2023-07-31T04:28:03;97805.28;;;22.90;nan
9091;BME280;4581;42.416;25.598;2023-07-31T04:30:30;97814.38;;;23.01;nan
9091;BME280;4581;42.416;25.598;2023-07-31T04:32:57;97813.81;;;23.04;nan
9091;BME280;4581;42.416;25.598;2023-07-31T04:35:23;97818.78;;;23.12;nan
9091;BME280;4581;42.416;25.598;2023-07-31T04:37:50;97825.41;;;23.21;nan
9091;BME280;4581;42.416;25.598;2023-07-31T04:40:17;97818.50;;;23.23;nan
9091;BME280;4581;42.416;25.598;2023-07-31T04:42:44;97829.53;;;23.39;nan
9091;BME280;4581;42.416;25.598;2023-07-31T04:45:10;97824.56;;;23.41;nan
9091;BME280;4581;42.416;25.598;2023-07-31T04:47:37;97822.41;;;23.43;nan
9091;BME280;4581;42.416;25.598;2023-07-31T04:50:04;97835.06;;;23.49;nan
9091;BME280;4581;42.416;25.598;2023-07-31T04:52:31;97835.88;;;23.44;nan
9091;BME280;4581;42.416;25.598;2023-07-31T04:54:58;97836.38;;;23.31;nan
9091;BME280;4581;42.416;25.598;2023-07-31T04:57:25;97832.28;;;23.28;nan
9091;BME280;4581;42.416;25.598;2023-07-31T04:59:51;97833.94;;;23.29;nan
9091;BME280;4581;42.416;25.598;2023-07-31T05:02:18;97838.59;;;23.29;nan
9091;BME280;4581;42.416;25.598;2023-07-31T05:04:45;97842.19;;;23.29;nan
9091;BME280;4581;42.416;25.598;2023-07-31T05:07:11;97858.97;;;23.33;nan
9091;BME280;4581;42.416;25.598;2023-07-31T05:09:38;97856.75;;;23.30;nan
9091;BME280;4581;42.416;25.598;2023-07-31T05:12:06;97857.56;;;23.36;nan
9091;BME280;4581;42.416;25.598;2023-07-31T05:14:32;97861.47;;;23.35;nan
9091;BME280;4581;42.416;25.598;2023-07-31T05:16:59;97862.00;;;23.26;nan
9091;BME280;4581;42.416;25.598;2023-07-31T05:19:26;97859.47;;;23.05;nan
9091;BME280;4581;42.416;25.598;2023-07-31T05:21:53;97849.03;;;23.17;nan
9091;BME280;4581;42.416;25.598;2023-07-31T05:24:19;97859.22;;;23.21;nan
9091;BME280;4581;42.416;25.598;2023-07-31T05:26:46;97857.31;;;23.22;nan
9091;BME280;4581;42.416;25.598;2023-07-31T05:29:13;97864.19;;;23.24;nan
9091;BME280;4581;42.416;25.598;2023-07-31T05:31:39;97860.88;;;23.27;nan
9091;BME280;4581;42.416;25.598;2023-07-31T05:34:06;97868.88;;;23.34;nan
9091;BME280;4581;42.416;25.598;2023-07-31T05:36:33;97873.53;;;23.28;nan
9091;BME280;4581;42.416;25.598;2023-07-31T05:39:00;97882.34;;;23.25;nan
9091;BME280;4581;42.416;25.598;2023-07-31T05:41:26;97877.13;;;23.34;nan
9091;BME280;4581;42.416;25.598;2023-07-31T05:43:53;97882.31;;;23.20;nan
9091;BME280;4581;42.416;25.598;2023-07-31T05:46:20;97889.75;;;23.10;nan
9091;BME280;4581;42.416;25.598;2023-07-31T05:48:47;97901.28;;;23.02;nan
9091;BME280;4581;42.416;25.598;2023-07-31T05:51:13;97908.13;;;22.94;nan
9091;BME280;4581;42.416;25.598;2023-07-31T05:53:40;97901.22;;;22.87;nan
9091;BME280;4581;42.416;25.598;2023-07-31T05:56:07;97908.56;;;22.71;nan
9091;BME280;4581;42.416;25.598;2023-07-31T05:58:34;97912.34;;;22.55;nan
9091;BME280;4581;42.416;25.598;2023-07-31T06:01:01;97918.84;;;22.44;nan
9091;BME280;4581;42.416;25.598;2023-07-31T06:03:28;97933.63;;;22.32;nan
9091;BME280;4581;42.416;25.598;2023-07-31T06:05:54;97931.38;;;22.24;nan
9091;BME280;4581;42.416;25.598;2023-07-31T06:08:21;97938.38;;;22.05;nan
9091;BME280;4581;42.416;25.598;2023-07-31T06:10:48;97932.25;;;21.93;nan
9091;BME280;4581;42.416;25.598;2023-07-31T06:13:15;97932.72;;;21.85;nan
9091;BME280;4581;42.416;25.598;2023-07-31T06:15:41;97934.56;;;21.79;nan
9091;BME280;4581;42.416;25.598;2023-07-31T06:18:08;97925.78;;;21.77;nan
9091;BME280;4581;42.416;25.598;2023-07-31T06:20:35;97932.34;;;21.76;nan
9091;BME280;4581;42.416;25.598;2023-07-31T06:23:01;97939.16;;;21.69;nan
9091;BME280;4581;42.416;25.598;2023-07-31T06:25:29;97935.16;;;21.50;nan
9091;BME280;4581;42.416;25.598;2023-07-31T06:27:55;97937.53;;;21.41;nan
9091;BME280;4581;42.416;25.598;2023-07-31T06:30:22;97933.03;;;21.30;nan
9091;BME280;4581;42.416;25.598;2023-07-31T06:32:49;97929.78;;;21.33;nan
9091;BME280;4581;42.416;25.598;2023-07-31T06:35:16;97940.50;;;21.34;nan
9091;BME280;4581;42.416;25.598;2023-07-31T06:37:42;97951.94;;;21.26;nan
9091;BME280;4581;42.416;25.598;2023-07-31T06:40:11;97951.84;;;21.21;nan
9091;BME280;4581;42.416;25.598;2023-07-31T06:42:37;97959.72;;;21.13;nan
9091;BME280;4581;42.416;25.598;2023-07-31T06:45:04;97952.56;;;21.12;nan
9091;BME280;4581;42.416;25.598;2023-07-31T06:47:31;97941.91;;;21.15;nan
9091;BME280;4581;42.416;25.598;2023-07-31T06:49:58;97947.44;;;21.20;nan
9091;BME280;4581;42.416;25.598;2023-07-31T06:52:25;97938.41;;;21.20;nan
9091;BME280;4581;42.416;25.598;2023-07-31T06:55:16;97932.06;;;21.14;nan
9091;BME280;4581;42.416;25.598;2023-07-31T06:57:50;97928.63;;;21.29;nan
9091;BME280;4581;42.416;25.598;2023-07-31T07:00:18;97941.03;;;21.36;nan
9091;BME280;4581;42.416;25.598;2023-07-31T07:02:45;97938.09;;;21.43;nan
9091;BME280;4581;42.416;25.598;2023-07-31T07:05:17;97939.84;;;21.54;nan
9091;BME280;4581;42.416;25.598;2023-07-31T07:07:44;97936.97;;;21.71;nan
9091;BME280;4581;42.416;25.598;2023-07-31T07:10:11;97937.59;;;21.78;nan
9091;BME280;4581;42.416;25.598;2023-07-31T07:12:38;97925.59;;;21.89;nan
9091;BME280;4581;42.416;25.598;2023-07-31T07:15:05;97928.53;;;22.09;nan
9091;BME280;4581;42.416;25.598;2023-07-31T07:17:32;97923.94;;;22.20;nan
9091;BME280;4581;42.416;25.598;2023-07-31T07:19:59;97934.44;;;22.33;nan
9091;BME280;4581;42.416;25.598;2023-07-31T07:22:26;97939.75;;;22.45;nan
9091;BME280;4581;42.416;25.598;2023-07-31T07:24:54;97919.97;;;22.48;nan
9091;BME280;4581;42.416;25.598;2023-07-31T07:27:20;97929.41;;;22.67;nan
9091;BME280;4581;42.416;25.598;2023-07-31T07:29:50;97925.13;;;22.81;nan
9091;BME280;4581;42.416;25.598;2023-07-31T07:32:18;97929.53;;;22.87;nan
9091;BME280;4581;42.416;25.598;2023-07-31T07:34:45;97932.06;;;22.99;nan
9091;BME280;4581;42.416;25.598;2023-07-31T07:37:11;97936.25;;;23.21;nan
9091;BME280;4581;42.416;25.598;2023-07-31T07:39:38;97939.31;;;23.30;nan
9091;BME280;4581;42.416;25.598;2023-07-31T07:42:05;97933.25;;;23.38;nan
9091;BME280;4581;42.416;25.598;2023-07-31T07:44:32;97944.59;;;23.57;nan
9091;BME280;4581;42.416;25.598;2023-07-31T07:46:59;97945.16;;;23.59;nan
9091;BME280;4581;42.416;25.598;2023-07-31T07:49:25;97944.06;;;23.80;nan
9091;BME280;4581;42.416;25.598;2023-07-31T07:51:52;97938.84;;;24.09;nan
9091;BME280;4581;42.416;25.598;2023-07-31T07:54:19;97940.22;;;24.21;nan
9091;BME280;4581;42.416;25.598;2023-07-31T07:56:47;97942.41;;;24.24;nan
9091;BME280;4581;42.416;25.598;2023-07-31T07:59:14;97944.03;;;24.51;nan
9091;BME280;4581;42.416;25.598;2023-07-31T08:01:41;97947.91;;;24.55;nan
9091;BME280;4581;42.416;25.598;2023-07-31T08:04:08;97943.47;;;24.49;nan
9091;BME280;4581;42.416;25.598;2023-07-31T08:06:34;97949.25;;;24.62;nan
9091;BME280;4581;42.416;25.598;2023-07-31T08:09:01;97944.84;;;24.56;nan
9091;BME280;4581;42.416;25.598;2023-07-31T08:11:33;97939.34;;;24.51;nan
9091;BME280;4581;42.416;25.598;2023-07-31T08:14:00;97936.25;;;24.68;nan
9091;BME280;4581;42.416;25.598;2023-07-31T08:16:26;97935.09;;;24.84;nan
9091;BME280;4581;42.416;25.598;2023-07-31T08:18:53;97939.53;;;24.90;nan
9091;BME280;4581;42.416;25.598;2023-07-31T08:21:21;97939.47;;;25.00;nan
9091;BME280;4581;42.416;25.598;2023-07-31T08:23:48;97934.44;;;25.17;nan
9091;BME280;4581;42.416;25.598;2023-07-31T08:26:16;97928.22;;;25.41;nan
9091;BME280;4581;42.416;25.598;2023-07-31T08:28:43;97926.78;;;25.53;nan
9091;BME280;4581;42.416;25.598;2023-07-31T08:31:10;97932.38;;;25.82;nan
9091;BME280;4581;42.416;25.598;2023-07-31T08:33:38;97936.97;;;25.92;nan
9091;BME280;4581;42.416;25.598;2023-07-31T08:36:05;97929.13;;;26.04;nan
9091;BME280;4581;42.416;25.598;2023-07-31T08:38:33;97932.16;;;26.07;nan
9091;BME280;4581;42.416;25.598;2023-07-31T08:40:59;97943.47;;;26.11;nan
9091;BME280;4581;42.416;25.598;2023-07-31T08:43:27;97954.31;;;26.02;nan
9091;BME280;4581;42.416;25.598;2023-07-31T08:45:54;97954.06;;;25.99;nan
9091;BME280;4581;42.416;25.598;2023-07-31T08:48:22;97957.69;;;25.94;nan
9091;BME280;4581;42.416;25.598;2023-07-31T08:50:51;97957.47;;;25.86;nan
9091;BME280;4581;42.416;25.598;2023-07-31T08:53:19;97953.66;;;25.82;nan
9091;BME280;4581;42.416;25.598;2023-07-31T08:55:47;97960.00;;;25.82;nan
9091;BME280;4581;42.416;25.598;2023-07-31T08:58:15;97958.28;;;25.91;nan
9091;BME280;4581;42.416;25.598;2023-07-31T09:00:42;97962.50;;;25.79;nan
9091;BME280;4581;42.416;25.598;2023-07-31T09:03:17;97970.50;;;25.80;nan
9091;BME280;4581;42.416;25.598;2023-07-31T09:05:46;97967.25;;;25.73;nan
9091;BME280;4581;42.416;25.598;2023-07-31T09:08:14;97968.28;;;25.82;nan
9091;BME280;4581;42.416;25.598;2023-07-31T09:10:45;97966.88;;;26.19;nan
9091;BME280;4581;42.416;25.598;2023-07-31T09:13:16;97968.31;;;26.45;nan
9091;BME280;4581;42.416;25.598;2023-07-31T09:15:45;97972.66;;;26.80;nan
9091;BME280;4581;42.416;25.598;2023-07-31T09:18:12;97974.41;;;26.71;nan
9091;BME280;4581;42.416;25.598;2023-07-31T09:20:40;97966.34;;;26.50;nan
9091;BME280;4581;42.416;25.598;2023-07-31T09:23:12;97961.47;;;26.66;nan
9091;BME280;4581;42.416;25.598;2023-07-31T09:25:43;97965.25;;;26.75;nan
9091;BME280;4581;42.416;25.598;2023-07-31T09:28:11;97968.09;;;26.65;nan
9091;BME280;4581;42.416;25.598;2023-07-31T09:30:49;97962.25;;;26.72;nan
9091;BME280;4581;42.416;25.598;2023-07-31T09:33:17;97958.78;;;26.56;nan
9091;BME280;4581;42.416;25.598;2023-07-31T09:35:44;97967.50;;;26.68;nan
9091;BME280;4581;42.416;25.598;2023-07-31T09:38:13;97955.81;;;26.76;nan
9091;BME280;4581;42.416;25.598;2023-07-31T09:40:45;97960.38;;;27.15;nan
9091;BME280;4581;42.416;25.598;2023-07-31T09:43:17;97955.81;;;27.24;nan
9091;BME280;4581;42.416;25.598;2023-07-31T09:45:44;97956.06;;;27.46;nan
9091;BME280;4581;42.416;25.598;2023-07-31T09:48:13;97953.69;;;27.58;nan
9091;BME280;4581;42.416;25.598;2023-07-31T09:50:44;97949.66;;;27.69;nan
9091;BME280;4581;42.416;25.598;2023-07-31T09:53:12;97953.47;;;27.92;nan
9091;BME280;4581;42.416;25.598;2023-07-31T09:55:40;97952.53;;;27.97;nan
9091;BME280;4581;42.416;25.598;2023-07-31T09:58:09;97955.97;;;28.07;nan
9091;BME280;4581;42.416;25.598;2023-07-31T10:00:37;97943.19;;;27.92;nan
9091;BME280;4581;42.416;25.598;2023-07-31T10:03:06;97950.16;;;28.09;nan
9091;BME280;4581;42.416;25.598;2023-07-31T10:05:40;97956.56;;;27.72;nan
9091;BME280;4581;42.416;25.598;2023-07-31T10:08:09;97946.69;;;27.42;nan
9091;BME280;4581;42.416;25.598;2023-07-31T10:10:37;97939.19;;;27.48;nan
9091;BME280;4581;42.416;25.598;2023-07-31T10:13:08;97948.16;;;27.58;nan
9091;BME280;4581;42.416;25.598;2023-07-31T10:15:36;97943.28;;;27.50;nan
9091;BME280;4581;42.416;25.598;2023-07-31T10:18:05;97949.75;;;27.40;nan
9091;BME280;4581;42.416;25.598;2023-07-31T10:20:33;97945.56;;;27.24;nan
9091;BME280;4581;42.416;25.598;2023-07-31T10:23:00;97926.47;;;27.04;nan
9091;BME280;4581;42.416;25.598;2023-07-31T10:25:28;97929.50;;;26.84;nan
9091;BME280;4581;42.416;25.598;2023-07-31T10:27:57;97928.91;;;26.87;nan
9091;BME280;4581;42.416;25.598;2023-07-31T10:30:27;97931.69;;;26.82;nan
9091;BME280;4581;42.416;25.598;2023-07-31T10:32:54;97927.47;;;26.89;nan
9091;BME280;4581;42.416;25.598;2023-07-31T10:35:22;97915.91;;;26.82;nan
9091;BME280;4581;42.416;25.598;2023-07-31T10:37:49;97909.56;;;26.82;nan
9091;BME280;4581;42.416;25.598;2023-07-31T10:40:24;97920.00;;;26.90;nan
9091;BME280;4581;42.416;25.598;2023-07-31T10:42:55;97921.66;;;26.91;nan
9091;BME280;4581;42.416;25.598;2023-07-31T10:48:20;97915.94;;;27.25;nan
9091;BME280;4581;42.416;25.598;2023-07-31T10:53:26;97914.78;;;28.01;nan
9091;BME280;4581;42.416;25.598;2023-07-31T10:55:58;97919.03;;;28.44;nan
9091;BME280;4581;42.416;25.598;2023-07-31T10:58:25;97907.22;;;28.38;nan
9091;BME280;4581;42.416;25.598;2023-07-31T11:00:55;97904.81;;;28.92;nan
9091;BME280;4581;42.416;25.598;2023-07-31T11:03:25;97907.00;;;29.44;nan
9091;BME280;4581;42.416;25.598;2023-07-31T11:05:59;97903.06;;;29.45;nan
9091;BME280;4581;42.416;25.598;2023-07-31T11:08:36;97890.34;;;29.44;nan
9091;BME280;4581;42.416;25.598;2023-07-31T11:11:09;97893.94;;;29.67;nan
9091;BME280;4581;42.416;25.598;2023-07-31T11:13:45;97890.41;;;29.89;nan
9091;BME280;4581;42.416;25.598;2023-07-31T11:16:17;97882.16;;;29.84;nan
9091;BME280;4581;42.416;25.598;2023-07-31T11:18:46;97881.75;;;29.54;nan
9091;BME280;4581;42.416;25.598;2023-07-31T11:21:16;97885.03;;;29.79;nan
9091;BME280;4581;42.416;25.598;2023-07-31T11:23:51;97880.94;;;29.76;nan
9091;BME280;4581;42.416;25.598;2023-07-31T11:26:19;97869.06;;;30.06;nan
9091;BME280;4581;42.416;25.598;2023-07-31T11:28:47;97873.38;;;30.12;nan
9091;BME280;4581;42.416;25.598;2023-07-31T11:31:14;97870.97;;;30.19;nan
9091;BME280;4581;42.416;25.598;2023-07-31T11:33:41;97867.59;;;30.00;nan
9091;BME280;4581;42.416;25.598;2023-07-31T11:36:19;97863.84;;;30.05;nan
9091;BME280;4581;42.416;25.598;2023-07-31T11:38:46;97866.66;;;29.47;nan
9091;BME280;4581;42.416;25.598;2023-07-31T11:41:17;97858.00;;;28.85;nan
9091;BME280;4581;42.416;25.598;2023-07-31T11:43:45;97851.53;;;29.03;nan
9091;BME280;4581;42.416;25.598;2023-07-31T11:46:13;97845.19;;;28.48;nan
9091;BME280;4581;42.416;25.598;2023-07-31T11:48:41;97849.47;;;28.81;nan
9091;BME280;4581;42.416;25.598;2023-07-31T11:51:10;97848.66;;;29.66;nan
9091;BME280;4581;42.416;25.598;2023-07-31T11:53:45;97846.19;;;30.40;nan
9091;BME280;4581;42.416;25.598;2023-07-31T11:56:17;97847.47;;;30.74;nan
9091;BME280;4581;42.416;25.598;2023-07-31T11:58:46;97839.09;;;30.56;nan
9091;BME280;4581;42.416;25.598;2023-07-31T12:01:15;97848.41;;;30.52;nan
9091;BME280;4581;42.416;25.598;2023-07-31T12:03:44;97846.56;;;30.47;nan
9091;BME280;4581;42.416;25.598;2023-07-31T12:06:11;97847.06;;;30.49;nan
9091;BME280;4581;42.416;25.598;2023-07-31T12:08:38;97836.63;;;30.24;nan
9091;BME280;4581;42.416;25.598;2023-07-31T12:11:07;97832.88;;;30.29;nan
9091;BME280;4581;42.416;25.598;2023-07-31T12:13:36;97832.19;;;30.23;nan
9091;BME280;4581;42.416;25.598;2023-07-31T12:16:03;97835.34;;;30.30;nan
9091;BME280;4581;42.416;25.598;2023-07-31T12:18:34;97825.16;;;30.17;nan
9091;BME280;4581;42.416;25.598;2023-07-31T12:21:04;97825.41;;;30.07;nan
9091;BME280;4581;42.416;25.598;2023-07-31T12:23:32;97829.72;;;29.91;nan
9091;BME280;4581;42.416;25.598;2023-07-31T12:26:07;97822.53;;;29.67;nan
9091;BME280;4581;42.416;25.598;2023-07-31T12:28:40;97836.91;;;28.98;nan
9091;BME280;4581;42.416;25.598;2023-07-31T12:31:10;97831.81;;;28.50;nan
9091;BME280;4581;42.416;25.598;2023-07-31T12:33:39;97837.28;;;27.96;nan
9091;BME280;4581;42.416;25.598;2023-07-31T12:36:08;97825.31;;;27.49;nan
9091;BME280;4581;42.416;25.598;2023-07-31T12:38:36;97832.13;;;27.00;nan
9091;BME280;4581;42.416;25.598;2023-07-31T12:41:02;97829.16;;;26.73;nan
9091;BME280;4581;42.416;25.598;2023-07-31T12:43:29;97818.44;;;26.48;nan
9091;BME280;4581;42.416;25.598;2023-07-31T12:45:56;97808.78;;;26.45;nan
9091;BME280;4581;42.416;25.598;2023-07-31T12:48:23;97807.75;;;26.60;nan
9091;BME280;4581;42.416;25.598;2023-07-31T12:50:50;97819.84;;;26.45;nan
9091;BME280;4581;42.416;25.598;2023-07-31T12:53:16;97817.69;;;26.14;nan
9091;BME280;4581;42.416;25.598;2023-07-31T12:55:43;97818.69;;;25.70;nan
9091;BME280;4581;42.416;25.598;2023-07-31T12:58:10;97833.88;;;25.34;nan
9091;BME280;4581;42.416;25.598;2023-07-31T13:00:37;97831.19;;;24.75;nan
9091;BME280;4581;42.416;25.598;2023-07-31T13:03:04;97827.72;;;24.49;nan
9091;BME280;4581;42.416;25.598;2023-07-31T13:05:31;97832.72;;;24.37;nan
9091;BME280;4581;42.416;25.598;2023-07-31T13:07:58;97822.22;;;24.44;nan
9091;BME280;4581;42.416;25.598;2023-07-31T13:10:25;97827.72;;;24.44;nan
9091;BME280;4581;42.416;25.598;2023-07-31T13:12:56;97824.69;;;24.45;nan
9091;BME280;4581;42.416;25.598;2023-07-31T13:15:23;97816.72;;;24.44;nan
9091;BME280;4581;42.416;25.598;2023-07-31T13:17:50;97808.97;;;24.51;nan
9091;BME280;4581;42.416;25.598;2023-07-31T13:20:16;97811.63;;;24.71;nan
9091;BME280;4581;42.416;25.598;2023-07-31T13:22:43;97816.75;;;24.98;nan
9091;BME280;4581;42.416;25.598;2023-07-31T13:25:12;97818.16;;;25.29;nan
9091;BME280;4581;42.416;25.598;2023-07-31T13:27:39;97813.34;;;25.45;nan
9091;BME280;4581;42.416;25.598;2023-07-31T13:30:06;97817.19;;;25.83;nan
9091;BME280;4581;42.416;25.598;2023-07-31T13:32:33;97823.63;;;25.73;nan
9091;BME280;4581;42.416;25.598;2023-07-31T13:35:00;97826.38;;;25.73;nan
9091;BME280;4581;42.416;25.598;2023-07-31T13:37:26;97830.22;;;25.77;nan
9091;BME280;4581;42.416;25.598;2023-07-31T13:39:53;97823.34;;;25.75;nan
9091;BME280;4581;42.416;25.598;2023-07-31T13:42:20;97834.66;;;25.73;nan
9091;BME280;4581;42.416;25.598;2023-07-31T13:44:46;97834.53;;;25.59;nan
9091;BME280;4581;42.416;25.598;2023-07-31T13:47:13;97826.66;;;25.38;nan